Alexander Polo

Olheiro-Chefe - Universitario
20 Fev 2028
Domingo
Processo

Personalidade

Adaptabilidade (16) Ambição (16) Controvérsia (7) Lealdade (16) Pressão (19) Profissionalismo (17) Espírito Esportivo (5) Temperamento (8)

Perfil

Estilo de Treinamento Democrático
Licença Continental B
Determinação 11
Gestão de Pessoas 10
Motivação 12
Disciplina 4
Satisfação no Trabalho
100%
Fadiga
0%
Função Olheiro-Chefe
Salário 93.3K p/s
Contrato 14.03.2030

Desempenho

Comportamento Bom
Eficácia do Treinamento
51%
Desenvolvimento do Jogador
45%
Prevenção de Lesões
50%
Implementação Tática
65%

Eventos Recentes

Participou de uma reunião de recrutamento agora
Recomendou um alvo de transferência agora
Recomendou um alvo de transferência agora
Recomendou um alvo de transferência agora
Recomendou um alvo de transferência agora
Recomendou um alvo de transferência agora
Avaliou um jogador 7d atrás
Avaliou um jogador 7d atrás

Monitorando agora

229
Jogador Clube Status Habilidade Confiança Observado Última observação Último voto
Mikkel Hope Haugesund Ativo 107 / 119 40% 4 12.02.2028 -
Ronnie Harvey Bromley Ativo 84 / 84 40% 1 12.02.2028 -
Fillip Jenssen Riise Stabaek Ativo 110 / 99 40% 1 12.02.2028 -
Keagan Phiri Platinum Stars Ativo 106 / 112 40% 6 11.02.2028 -
Zane Albarus Cambridge United Ativo 94 / 104 40% 3 11.02.2028 -
Nahuel Leivas Levante Ativo 107 / 111 40% 2 11.02.2028 -
Freddy Murillo Valencia Ativo 115 / 111 40% 2 10.02.2028 -
Josh Nichols Tranmere Rovers Ativo 126 / 137 40% 2 10.02.2028 -
Germán Barbas Penarol Ativo 108 / 110 40% 1 10.02.2028 -
Rivaldo Grobler Free State Stars Ativo 95 / 122 40% 2 09.02.2028 -
Dmitry Pestryakov Dinamo Moscow Ativo 127 / 129 40% 2 09.02.2028 -
Jorthy Mokio ADO Den Haag Ativo 125 / 144 40% 1 09.02.2028 -
Lucas Camejo River Plate Ativo 87 / 93 40% 4 08.02.2028 -
Kauã Moraes Cruzeiro Ativo 126 / 124 40% 1 08.02.2028 -
Agustín Medina Valencia Ativo 119 / 117 40% 1 08.02.2028 -
Martim Cunha Porto Ativo 103 / 126 40% 3 07.02.2028 -
Caleb Yirenkyi Coventry City Ativo 137 / 161 40% 6 06.01.2028 -
Matías Canedo Rampla Juniors Ativo 80 / 93 40% 2 06.01.2028 -
Samuel Posada Leones Ativo 88 / 95 40% 1 06.01.2028 -
Juan Morán Godoy Cruz Ativo 113 / 108 40% 5 03.01.2028 -
Ignacio Fernández Boston River Ativo 95 / 103 40% 2 03.01.2028 -
Juan Giménez Celta Ativo 130 / 120 40% 5 01.01.2028 -
José Correa Deportivo Tachira Ativo 97 / 105 40% 2 01.01.2028 -
Felipe Obradovich Ferro Carril Oeste Ativo 110 / 118 40% 1 01.01.2028 -
Joel Ezra Enyimba Ativo 99 / 105 40% 5 31.12.2027 -
Junior Machis Atletico Venezuela Ativo 74 / 75 40% 4 31.12.2027 -
David Damboama El-Kanemi Warriors Ativo 93 / 82 40% 1 31.12.2027 -
Roberto de la Rosa Vélez Ativo 126 / 116 40% 8 28.12.2027 -
Fernando Mimbacas Juventud Ativo 119 / 110 40% 1 28.12.2027 -
Tiziano Dornell Danubio Ativo 117 / 118 40% 1 28.12.2027 -
Alex Amaefula Kun Khalifat Ativo 86 / 93 40% 1 15.12.2027 -
Dylan Cabral Arsenal Perdido 104 / 98 40% 1 15.12.2027 -
Nicolás Azambuja Cádiz Ativo 129 / 140 40% 1 14.12.2027 -
Alfie James Ventforet Kofu Ativo 85 / 103 40% 1 14.12.2027 -
Luca Williams-Barnett Tranmere Rovers Ativo 110 / 139 40% 1 14.12.2027 -
Yamir Oliva Juan Aurich Ativo 104 / 111 72% 1 13.12.2027 Aprovar
Luciano Cosentino Wanderers Perdido 122 / 131 40% 11 10.12.2027 -
Mauro Méndez Tigre Perdido 127 / 123 40% 7 10.12.2027 -
Facundo Batista Penarol Perdido 124 / 126 40% 5 10.12.2027 -
Jofre Torrents Ajax Ativo 126 / 138 40% 8 06.12.2027 -
Samuel Martín Millonarios Negociando 109 / 118 40% 1 06.12.2027 -
Onuorah Onyedika Kun Khalifat Ativo 78 / 83 40% 1 06.12.2027 -
Angelo Campos Juan Aurich Ativo 110 / 103 72% 1 05.12.2027 Aprovar
Luciano Gondou CSKA Moscow Ativo 139 / 144 40% 6 03.12.2027 -
Mateusz Bogusz Houston Dynamo Ativo 137 / 134 40% 6 03.12.2027 -
Alexis Cuello San Lorenzo Ativo 127 / 131 40% 6 03.12.2027 -
Anthony Rosell Juan Aurich Ativo 109 / 105 72% 1 03.12.2027 Aprovar
Héctor Campos Juan Aurich Ativo 97 / 113 72% 1 02.12.2027 Aprovar
Richard Koné Queens Park Rangers Ativo 123 / 134 40% 2 30.11.2027 -
William Osula Wrexham Ativo 133 / 131 40% 1 30.11.2027 -
Afimico Pululu Rosario Central Ativo 127 / 120 40% 7 29.11.2027 -
Mateo Bajamich Atlético Tucumán Ativo 122 / 123 40% 7 27.11.2027 -
Mateo Coronel Atlético Tucumán Ativo 124 / 124 40% 3 27.11.2027 -
Etiosa Ighodaro Kaizer Chiefs Ativo 119 / 119 40% 5 26.11.2027 -
Antony Alonso Deportivo Riestra Ativo 129 / 122 40% 9 26.11.2027 -
Alejo Cruz Juventud Ativo 128 / 120 40% 5 25.11.2027 -
Mauro Carrizo Atlético Tucumán Ativo 99 / 107 40% 2 25.11.2027 -
Alexander Díaz Deportivo Riestra Ativo 118 / 124 40% 6 25.11.2027 -
Emiliano Bértoli Patronato Ativo 98 / 108 40% 3 25.11.2027 -
Juan Camilo Córdoba Deportivo Pereira Ativo 82 / 100 40% 1 25.11.2027 -
Ángel Aguayo Sol de America Ativo 95 / 97 40% 1 23.11.2027 -
Giovanni Leoni Bradford City Ativo 142 / 139 40% 1 23.11.2027 -
Ammar Ramadan DAC Dunajska Streda Ativo 124 / 131 40% 4 22.11.2027 -
Juan Manuel Gutiérrez Defensa y Justicia Ativo 127 / 115 40% 5 22.11.2027 -
Dwight McNeil Crystal Palace Ativo 138 / 137 40% 1 21.11.2027 -
Miles Leaburn Exeter City Ativo 116 / 121 40% 1 21.11.2027 -
Bruno Barticciotto Talleres Ativo 127 / 126 40% 7 18.11.2027 -
Gastón González Defensa y Justicia Ativo 118 / 122 40% 3 18.11.2027 -
Santiago Solari Racing Club Ativo 122 / 117 40% 2 17.11.2027 -
Tiago Gordillo San Miguel Ativo 85 / 93 40% 1 17.11.2027 -
Ruben van Bommel Ferencvaros Ativo 133 / 140 40% 7 15.11.2027 -
Maximiliano Salas River Plate Ativo 124 / 120 40% 7 14.11.2027 -
Erik Botheim Talleres Ativo 132 / 126 40% 3 12.11.2027 -
Ramiro Ruiz Rodríguez Atlético Tucumán Ativo 120 / 120 40% 6 11.11.2027 -
Jefry Zapata Danubio Ativo 121 / 112 40% 8 11.11.2027 -
Matías Gómez Granada Ativo 114 / 129 40% 5 10.11.2027 -
Agustín Módica Gimnasia y Esgrima Ativo 122 / 122 40% 6 10.11.2027 -
Godwin Oham Warri Wolves Ativo 82 / 85 40% 2 10.11.2027 -
Matías Abaldo Defensor Sporting Ativo 127 / 122 40% 1 10.11.2027 -
Lorent Tolaj Plymouth Argyle Ativo 116 / 118 40% 1 07.11.2027 -
Facundo Krüger FK Senica Ativo 126 / 105 40% 3 06.11.2027 -
Joe Gelhardt Hull City Ativo 131 / 153 40% 2 05.11.2027 -
Gonzalo Plata Rosario Central Ativo 136 / 132 40% 2 04.11.2027 -
Mathias Jørgensen Blackburn Rovers Ativo 120 / 110 40% 1 03.11.2027 -
Federico Girotti Alianza Lima Ativo 128 / 125 40% 7 02.11.2027 -
Fábio Carvalho Sheffield Wednesday Ativo 144 / 142 40% 1 02.11.2027 -
Emiliano Gómez Boston River Ativo 118 / 113 40% 7 31.10.2027 -
Callum O'Hare Sheffield United Ativo 139 / 140 40% 1 31.10.2027 -
Ez Abde Girona Ativo 153 / 147 40% 2 30.10.2027 -
Alan Cantero Alianza Lima Ativo 112 / 120 40% 3 29.10.2027 -
Zito Luvumbo Cagliari Ativo 132 / 126 40% 3 27.10.2027 -
Tyrese Campbell Sheffield United Ativo 135 / 128 40% 2 26.10.2027 -
Facundo Bruera San Lorenzo Ativo 126 / 119 40% 9 24.10.2027 -
Themba Ngcobo SuperSport United Ativo 119 / 137 40% 5 23.10.2027 -
Tyson Pearce St. Louis CITY SC Ativo 89 / 92 40% 1 23.10.2027 -
Arthur Sales Free State Stars Ativo 121 / 125 40% 2 20.10.2027 -
Gastón Verón Argentinos Juniors Ativo 127 / 131 40% 2 19.10.2027 -
Hervin Goyes Deportivo Pasto Ativo 108 / 108 40% 2 16.10.2027 -
Mojmír Chytil NK Maribor Ativo 135 / 124 40% 3 13.10.2027 -
Martín Jiménez Audax Italiano Ativo 94 / 106 40% 1 12.10.2027 -
Alejandro Almaraz Nueva Chicago Ativo 108 / 107 40% 2 10.10.2027 -
Celías Ingenthron Vélez Ativo 119 / 127 40% 1 09.10.2027 -
Luca Martínez Dupuy Godoy Cruz Ativo 127 / 123 40% 2 08.10.2027 -
Daniel Gomez Valledupar Ativo 94 / 98 40% 2 07.10.2027 -
Mohamed Bolivar Barranquilla Ativo 95 / 104 40% 1 07.10.2027 -
Tom Cannon Sheffield United Ativo 132 / 132 40% 2 30.09.2027 -
Soufiane Benjdida Sporting Cristal Ativo 123 / 125 40% 3 30.09.2027 -
Favio Cabral Platense Ativo 115 / 120 40% 1 28.09.2027 -
Rumarn Burrell Queens Park Rangers Ativo 125 / 138 40% 1 24.09.2027 -
Matías Giménez Rojas Argentinos Juniors Ativo 127 / 117 40% 1 18.09.2027 -
Peter Christiansen Viking Ativo 124 / 115 40% 5 17.09.2027 -
Jalal Abdullai Molde Ativo 117 / 130 40% 1 17.09.2027 -
Marcelo Torres Gimnasia La Plata Ativo 118 / 120 40% 9 16.09.2027 -
Issa Yusuf Shooting Stars Ativo 95 / 85 40% 1 09.09.2027 -
Daniel Karlsbakk Sarpsborg 08 Ativo 134 / 120 40% 10 08.09.2027 Observar
Mpho Khethang AS Police Ativo 82 / 98 40% 1 07.09.2027 -
Hugo Rojas Instituto Ativo 109 / 112 40% 1 07.09.2027 -
Eliás Montiel Werder Bremen Ativo 137 / 138 40% 1 06.09.2027 -
David Asayure Lokomotivi Ativo 71 / 84 40% 1 06.09.2027 -
Leandro Suhr Boston River Ativo 120 / 123 40% 2 02.09.2027 -
Jonathan David Juventus Ativo 149 / 158 40% 1 02.09.2027 -
Pedro Marques Apollon Ativo 131 / 116 40% 2 22.08.2027 -
Nicolás Andereggen Ethnikos Achnas Ativo 108 / 117 40% 1 22.08.2027 -
Billal Messaoudi JS Kabylie Ativo 115 / 106 40% 1 22.08.2027 -
Matteo Rover Reggiana Ativo 120 / 129 40% 1 20.08.2027 -
Tijjani Noslin Lazio Ativo 148 / 147 40% 1 18.08.2027 -
Luca Moro Padova Ativo 131 / 139 40% 1 18.08.2027 -
David Romero Parma Ativo 140 / 135 40% 1 14.08.2027 -
Santiago Pierotti Lecce Ativo 138 / 120 40% 1 14.08.2027 -
Konan N'Dri Lecce Ativo 124 / 127 40% 1 13.08.2027 -
Stiven Shpendi Empoli Ativo 113 / 111 40% 1 13.08.2027 -
Cristian Shpendi Cesena Ativo 145 / 142 40% 2 12.08.2027 -
Camillo Tavernelli Arezzo Ativo 122 / 113 40% 1 12.08.2027 -
Willem Geubbels Lecce Ativo 143 / 118 40% 1 12.08.2027 -
Jens Odgaard Bologna Ativo 137 / 129 40% 1 11.08.2027 -
Simone Mazzocchi Cosenza Ativo 120 / 126 40% 1 11.08.2027 -
Leo Castledine Middlesbrough Ativo 127 / 127 40% 1 06.08.2027 -
Ilyas Ansah Hull City Ativo 125 / 151 40% 1 06.08.2027 -
Aidomo Emakhu Oxford United Ativo 114 / 134 40% 1 06.08.2027 -
Bernat Guiu Virtus Entella Ativo 120 / 129 40% 1 05.08.2027 -
Patson Daka Leicester City Ativo 120 / 130 40% 1 05.08.2027 -
Noah Okafor Leeds United Ativo 146 / 147 40% 1 05.08.2027 -
Davis Keillor-Dunn Wrexham Ativo 118 / 130 40% 2 04.08.2027 -
Martín Távara Sporting Cristal Ativo 120 / 108 69% 1 28.06.2027 Aprovar
Kazunari Kita Real Sociedad Ativo 106 / 101 40% 4 22.06.2027 -
Jhamir D'Arrigo Melgar Ativo 110 / 121 69% 1 21.06.2027 Aprovar
Gorka Guruzeta Athletic Bilbao Ativo 154 / 158 40% 1 09.06.2027 -
Morgan Whittaker Middlesbrough Ativo 129 / 115 40% 1 31.05.2027 -
Jan Bürger Gillingham Ativo 107 / 116 40% 3 30.05.2027 -
Christos Mouzakitis Hull City Ativo 137 / 136 40% 10 29.05.2027 -
Johan Manzambi Newcastle United Ativo 138 / 134 40% 2 29.05.2027 -
Christ Inao Oulaï Fiorentina Ativo 144 / 137 40% 6 27.05.2027 -
Fuzy Taylor Medeama Ativo 85 / 91 40% 2 27.05.2027 -
Davide Bartesaghi AC Milan Ativo 140 / 149 40% 6 27.05.2027 -
Nazareno Kihm Ferro Carril Oeste Ativo 105 / 112 40% 2 26.05.2027 -
Ernie Weaver AFC Wimbledon Ativo 120 / 116 40% 3 25.05.2027 -
Dylan Lawlor Cardiff City Ativo 127 / 127 40% 5 25.05.2027 -
Tiago Freitas Benfica Ativo 105 / 107 40% 5 20.05.2027 -
Riley Owen Trento Ativo 107 / 116 40% 2 20.05.2027 -
Keagan Tau Ajax Cape Town Ativo 90 / 99 40% 4 19.05.2027 -
Pietro Reggiori Pro Patria Ativo 87 / 105 40% 2 18.05.2027 -
Gonçalo Oliveira Benfica Ativo 117 / 104 40% 7 17.05.2027 -
Daniel Kelly Oxford United Ativo 113 / 107 40% 2 15.05.2027 -
Sascha Britschgi Padova Ativo 129 / 122 40% 4 12.05.2027 -
Joel McGregor Swindon Town Ativo 98 / 108 40% 4 11.05.2027 -
Leandro Martins Benfica Ativo 95 / 102 40% 2 10.05.2027 -
Daniel Costa Sporting CP Ativo 99 / 101 40% 2 02.05.2027 -
Percy Jali Free State Stars Ativo 96 / 88 40% 5 26.04.2027 -
Hlompho Lorch Ajax Cape Town Ativo 88 / 102 40% 2 25.04.2027 -
Adam Bakoune Ospitaletto Ativo 95 / 106 40% 1 20.04.2027 -
Josh King Chelsea Ativo 129 / 131 40% 4 10.04.2027 -
David Ozoh Derby County Ativo 110 / 130 40% 6 01.04.2027 -
Joseph Nuhu Hasaacas Ativo 91 / 80 40% 1 31.03.2027 -
Dean Huijsen Villarreal Ativo 137 / 155 40% 2 29.03.2027 -
Vasilije Novičić IMT Ativo 91 / 123 40% 1 27.03.2027 -
Cemran Dansin Orlando Pirates Ativo 102 / 118 40% 3 19.03.2027 -
James Dornelly Peterborough United Ativo 99 / 124 40% 1 13.03.2027 -
Hamish Douglas Grimsby Town Ativo 86 / 88 40% 2 11.03.2027 -
Edwin Asamoah Berekum Chelsea Ativo 86 / 99 40% 1 10.03.2027 -
Ronwen Phiri Platinum Stars Ativo 87 / 112 40% 1 08.03.2027 -
Denys Smetana Nyva Ativo 80 / 82 40% 1 12.02.2027 -
Daniel Vernattus Metalist Ativo 91 / 92 40% 1 08.02.2027 -
Tyler Fredricson Oldham Athletic Ativo 100 / 115 40% 1 07.02.2027 -
Reda Khadra Qarabag Ativo 128 / 133 40% 2 14.12.2026 -
Dmitry Vorobjov Krasnodar Ativo 121 / 134 40% 2 30.11.2026 -
Gabriel Jesus Barcelona Ativo 152 / 159 40% 6 28.11.2026 Observar
Tio Cipot NK Maribor Ativo 119 / 116 40% 3 28.11.2026 -
Petar Stanić Ludogorets Ativo 147 / 119 40% 2 26.11.2026 -
Breel Embolo Atlanta United FC Ativo 134 / 126 40% 3 18.11.2026 -
Krisztofer Horváth Ujpest Ativo 115 / 116 40% 1 18.11.2026 -
Victor Adeboyejo Ismaily Ativo 109 / 107 40% 1 17.11.2026 -
Luka Kurtovic NK Domzale Ativo 124 / 131 40% 7 15.11.2026 Observar
Eren Aydın Zira Ativo 101 / 100 40% 1 15.11.2026 -
Lechi Sadulaev Akhmat Grozny Ativo 130 / 128 40% 1 15.11.2026 -
Marcus Browne AFC Wimbledon Ativo 108 / 119 40% 2 06.11.2026 -
Brayan León Mamelodi Sundowns Ativo 105 / 99 40% 1 06.11.2026 -
Andreas Helmersen Bodo/Glimt Ativo 117 / 132 40% 4 05.11.2026 -
Jonás Luna Santa Clara Ativo 128 / 116 40% 4 04.11.2026 -
Evidence Makgopa Orlando Pirates Ativo 108 / 106 40% 3 03.11.2026 -
John Okoye Ebuka Ittihad Ativo 111 / 101 40% 1 01.11.2026 -
Stephen Humphrys Bradford City Ativo 109 / 122 40% 4 31.10.2026 -
Axel Pérez NK Domzale Ativo 93 / 102 40% 1 31.10.2026 -
Gaspar Duarte Rosario Central Ativo 121 / 129 40% 2 13.10.2026 -
Fabricio Oviedo Rosario Central Ativo 99 / 107 40% 3 13.10.2026 -
Genaro Rossi San Martín SJ Ativo 116 / 121 40% 2 10.10.2026 -
José Balza Deportivo Tachira Ativo 100 / 106 40% 2 10.10.2026 -
Nahuel Ulariaga Hapoel Beer Sheva Ativo 126 / 116 40% 3 05.10.2026 -
Adalberto Peñaranda Deportivo Tachira Ativo 120 / 114 40% 2 04.10.2026 -
Kwadwo Duah Ludogorets Ativo 137 / 141 40% 1 30.09.2026 -
Sam Nombe Milton Keynes Dons Ativo 98 / 113 40% 1 28.09.2026 -
Marcelo Allende Mamelodi Sundowns Ativo 142 / 120 40% 1 27.09.2026 -
Diego Valencia Universidad Catolica Ativo 108 / 110 40% 3 25.09.2026 -
Danil Glebov Dinamo Moscow Ativo 120 / 136 40% 2 25.09.2026 -
Jacques Siwe Rubin Ativo 127 / 97 40% 1 22.09.2026 -
Agil Huseynov Inter Ativo 123 / 118 40% 1 21.09.2026 -
Bojan Radulović Huddersfield Town Ativo 112 / 112 40% 1 19.09.2026 -
Mandla Mahlangu Ajax Cape Town Ativo 98 / 109 40% 1 15.09.2026 -
Miguel Pereira Persebaya Ativo 126 / 109 40% 1 08.09.2026 -
Dominik Fiola Haladas Ativo 138 / 141 40% 2 03.09.2026 -
Lewis Morgan SuperSport United Ativo 132 / 108 40% 2 01.09.2026 -
Francisco Galván Deportivo Municipal Ativo 115 / 95 40% 1 27.08.2026 -
Matej Trusa DAC Dunajska Streda Ativo 107 / 131 40% 1 26.08.2026 -
Vegard Erlien Tromso Ativo 106 / 114 40% 1 19.08.2026 -
Samuel Kalu Botev Plovdiv Ativo 119 / 105 40% 1 18.08.2026 -
Cristian Núñez Huracán Ativo 123 / 114 40% 1 17.08.2026 -
Ignacio Sabatini Gimnasia y Esgrima Ativo 108 / 100 40% 2 10.08.2026 -
Makabi Lilepo Kaizer Chiefs Ativo 101 / 99 40% 1 08.08.2026 -
Gonzalo Escudero Racing Club Ativo 94 / 109 40% 1 03.08.2026 -
Juan Segundo Miretti River Plate Ativo 85 / 117 40% 1 03.08.2026 -